East Nichols, New York
Current Conditions -  °F | °C
As of 4:53 AM on Sunday 26 Oct 2014 (Local Time) from KBGM Reporting Station
Clear Clear  
Wind Chill: 37°   Ceiling: Unl
Heat Index: 43°   Visibility: 10mi
Dew Point: 38°   Wind: 10mph
Humidity: 82%   Direction: 270°W
Pressure: 29.6"   Gusts: NA
Location:  42.0389°N, 76.3138°W
Report Text: KBGM 260853Z AUTO 27009KT 10SM CLR 06/03 A2960 RMK AO2 SLP024 T00610033 53003
Loading
Personal Weather Stations






























Interactive Weather Map
Tropical Storm Tracking
New forecast layout! Learn more

10-Day Weather Forecast

Advertisements
Track Severe Weather on mobile